Nevada City, California
Current Conditions -  °F | °C
As of 8:20 AM on Thursday 27 Nov 2014 (Local Time) from KGOO Reporting Station
Clear Clear  
Wind Chill: 59°   Ceiling: Unl
Heat Index: 59°   Visibility: 10mi
Dew Point: 28°   Wind: 3mph
Humidity: 31%   Direction: 130°SE
Pressure: 30.23"   Gusts: NA
Location:  39.26°N, 121.02°W
Report Text: KGOO 271620Z AUTO 13003KT 10SM CLR 15/M02 A3023 RMK AO1
Loading
Personal Weather Stations






























Interactive Weather Map New forecast layout! Learn more

10-Day Weather Forecast

Advertisements
Track Severe Weather on mobile